createdAt,value
2023-05-23T00:01:59.069Z,7.43
2023-05-23T00:04:32.169Z,7.17
2023-05-23T00:07:01.348Z,7.53
2023-05-23T00:09:33.218Z,6.80
2023-05-23T00:12:05.599Z,7.53
2023-05-23T00:14:46.459Z,7.03
2023-05-23T00:17:25.164Z,7.50
2023-05-23T00:19:58.162Z,7.23
2023-05-23T00:22:27.296Z,7.23
2023-05-23T00:25:02.419Z,7.37
2023-05-23T00:27:41.586Z,7.60
2023-05-23T00:30:12.844Z,7.20
2023-05-23T00:32:44.963Z,7.50
2023-05-23T00:35:15.413Z,6.70
2023-05-23T00:37:50.681Z,7.13
2023-05-23T00:40:20.159Z,7.43
2023-05-23T00:42:49.883Z,7.20
2023-05-23T00:45:23.699Z,7.27
2023-05-23T00:47:53.068Z,7.27
2023-05-23T00:50:29.914Z,7.10
2023-05-23T00:53:02.289Z,7.00
2023-05-23T00:55:32.022Z,7.13
2023-05-23T00:58:10.768Z,7.20
2023-05-23T01:00:41.534Z,6.80
2023-05-23T01:03:26.117Z,7.10
2023-05-23T01:05:55.453Z,6.37
2023-05-23T01:08:24.471Z,7.87
2023-05-23T01:10:56.529Z,7.30
2023-05-23T01:13:36.265Z,7.43
2023-05-23T01:16:12.018Z,7.20
2023-05-23T01:18:54.987Z,7.30
2023-05-23T01:21:26.204Z,7.00
2023-05-23T01:24:38.008Z,7.40
2023-05-23T01:27:17.969Z,7.67
2023-05-23T01:29:56.697Z,7.33
2023-05-23T01:32:27.423Z,7.40
2023-05-23T01:34:56.584Z,7.17
2023-05-23T01:37:25.531Z,7.13
2023-05-23T01:39:57.512Z,7.30
2023-05-23T01:42:29.727Z,7.47
2023-05-23T01:45:00.172Z,7.23
2023-05-23T01:47:32.223Z,7.33
2023-05-23T01:50:04.943Z,7.57
2023-05-23T01:52:35.394Z,7.30
2023-05-23T01:55:12.460Z,7.00
2023-05-23T01:57:56.801Z,7.47
2023-05-23T02:00:27.498Z,7.20
2023-05-23T02:02:57.073Z,7.73
2023-05-23T02:05:29.302Z,7.60
2023-05-23T02:08:05.548Z,8.20
2023-05-23T02:10:46.536Z,7.60
2023-05-23T02:13:23.609Z,7.90
2023-05-23T02:15:53.767Z,8.40
2023-05-23T02:18:22.723Z,8.13
2023-05-23T02:20:52.925Z,8.30
2023-05-23T02:23:21.701Z,10.03
2023-05-23T02:25:50.383Z,9.17
2023-05-23T02:28:19.034Z,8.60
2023-05-23T02:30:52.430Z,9.30
2023-05-23T02:33:24.293Z,7.90
2023-05-23T02:35:53.385Z,7.80
2023-05-23T02:38:27.325Z,8.03
2023-05-23T02:41:03.333Z,8.77
2023-05-23T02:43:38.712Z,7.90
2023-05-23T02:46:09.503Z,7.90
2023-05-23T02:48:38.927Z,8.70
2023-05-23T02:51:11.108Z,8.53
2023-05-23T02:53:40.818Z,8.83
2023-05-23T02:56:10.688Z,8.20
2023-05-23T02:58:40.252Z,8.20
2023-05-23T03:01:14.181Z,8.57
2023-05-23T03:03:45.147Z,9.07
2023-05-23T03:06:17.663Z,8.53
2023-05-23T03:08:47.083Z,8.00
2023-05-23T03:11:16.847Z,8.77
2023-05-23T03:13:45.517Z,7.87
2023-05-23T03:16:17.209Z,7.90
2023-05-23T03:18:46.088Z,8.20
2023-05-23T03:21:14.979Z,13.03
2023-05-23T03:23:44.152Z,17.40
2023-05-23T03:26:13.277Z,20.40
2023-05-23T03:28:42.016Z,20.53
2023-05-23T03:31:10.675Z,21.13
2023-05-23T03:33:40.885Z,26.83
2023-05-23T03:36:09.989Z,27.37
2023-05-23T03:38:38.659Z,23.63
2023-05-23T03:41:07.526Z,23.53
2023-05-23T03:43:36.227Z,21.43
2023-05-23T03:46:05.023Z,20.17
2023-05-23T03:48:33.818Z,13.67
2023-05-23T03:51:04.185Z,11.33
2023-05-23T03:53:33.936Z,11.93
2023-05-23T03:56:03.892Z,150.13
2023-05-23T03:58:32.602Z,117.67
2023-05-23T04:01:02.287Z,65.90
2023-05-23T04:03:34.071Z,60.23
2023-05-23T04:06:04.331Z,127.77
2023-05-23T04:08:34.201Z,77.43
2023-05-23T04:11:03.327Z,85.60
2023-05-23T04:13:32.468Z,30.00
2023-05-23T04:16:05.956Z,10.93
2023-05-23T04:18:34.846Z,8.15
2023-05-23T04:21:05.270Z,13.02
2023-05-23T04:23:33.868Z,12.73
2023-05-23T04:26:02.576Z,14.02
2023-05-23T04:28:31.661Z,7.22
2023-05-23T04:31:00.327Z,6.30
2023-05-23T04:33:30.771Z,6.38
2023-05-23T04:35:59.443Z,6.28
2023-05-23T04:38:29.868Z,5.80
2023-05-23T04:40:58.884Z,5.72
2023-05-23T04:43:29.580Z,6.15
2023-05-23T04:45:58.501Z,5.18
2023-05-23T04:48:27.859Z,4.78
2023-05-23T04:50:56.542Z,5.55
2023-05-23T04:53:25.102Z,5.00
2023-05-23T04:55:55.371Z,4.60
2023-05-23T04:58:24.123Z,4.32
2023-05-23T05:00:52.882Z,5.10
2023-05-23T05:03:22.039Z,4.68
2023-05-23T05:05:50.898Z,4.93
2023-05-23T05:08:21.039Z,5.53
2023-05-23T05:10:49.937Z,4.60
2023-05-23T05:13:19.994Z,5.10
2023-05-23T05:15:53.137Z,4.55
2023-05-23T05:18:21.796Z,4.85
2023-05-23T05:20:50.529Z,4.38
2023-05-23T05:23:19.268Z,6.03
2023-05-23T05:25:48.131Z,4.72
2023-05-23T05:28:16.831Z,4.90
2023-05-23T05:30:46.855Z,4.40
2023-05-23T05:33:15.834Z,4.95
2023-05-23T05:35:44.604Z,4.20
2023-05-23T05:38:13.750Z,4.05
2023-05-23T05:40:42.685Z,4.20
2023-05-23T05:43:11.570Z,3.95
2023-05-23T05:45:40.313Z,3.57
2023-05-23T05:48:10.535Z,4.03
2023-05-23T05:50:45.503Z,3.45
2023-05-23T05:53:14.904Z,3.60
2023-05-23T05:55:43.514Z,3.78
2023-05-23T05:58:12.185Z,3.90
2023-05-23T06:00:44.003Z,3.25
2023-05-23T06:03:14.590Z,3.35
2023-05-23T06:05:43.533Z,4.20
2023-05-23T06:08:12.220Z,3.20
2023-05-23T06:10:40.998Z,3.55
2023-05-23T06:13:10.151Z,3.40
2023-05-23T06:15:39.340Z,3.30
2023-05-23T06:18:08.553Z,3.20
2023-05-23T06:20:38.839Z,3.38
2023-05-23T06:23:09.012Z,2.80
2023-05-23T06:25:37.732Z,3.50
2023-05-23T06:28:06.694Z,3.33
2023-05-23T06:30:37.601Z,3.55
2023-05-23T06:33:06.473Z,3.40
2023-05-23T06:35:35.193Z,3.35
2023-05-23T06:38:05.418Z,3.50
2023-05-23T06:40:34.050Z,3.30
2023-05-23T06:43:02.743Z,3.20
2023-05-23T06:45:31.444Z,3.35
2023-05-23T06:48:01.494Z,3.47
2023-05-23T06:50:30.234Z,3.40
2023-05-23T06:52:58.845Z,3.15
2023-05-23T06:55:29.408Z,3.00
2023-05-23T06:57:58.004Z,3.13
2023-05-23T07:00:26.707Z,3.40
2023-05-23T07:02:55.473Z,3.13
2023-05-23T07:05:24.162Z,3.40
2023-05-23T07:07:52.810Z,2.90
2023-05-23T07:10:21.555Z,2.90
2023-05-23T07:12:51.751Z,2.80
2023-05-23T07:15:20.355Z,2.58
2023-05-23T07:17:49.090Z,2.83
2023-05-23T07:20:17.893Z,2.70
2023-05-23T07:22:46.528Z,2.50
2023-05-23T07:25:15.227Z,3.00
2023-05-23T07:27:43.847Z,2.50
2023-05-23T07:30:14.610Z,2.95
2023-05-23T07:32:43.387Z,2.83
2023-05-23T07:35:12.074Z,2.35
2023-05-23T07:37:40.762Z,2.75
2023-05-23T07:40:10.691Z,2.53
2023-05-23T07:42:39.350Z,2.35
2023-05-23T07:45:09.358Z,2.70
2023-05-23T07:47:39.761Z,2.50
2023-05-23T07:50:10.104Z,2.50
2023-05-23T07:52:39.348Z,2.40
2023-05-23T07:55:09.056Z,2.67
2023-05-23T07:57:37.761Z,2.55
2023-05-23T08:00:07.421Z,2.78
2023-05-23T08:02:36.075Z,2.85
2023-05-23T08:05:07.297Z,2.50
2023-05-23T08:07:36.180Z,2.40
2023-05-23T08:10:05.063Z,2.47
2023-05-23T08:12:34.047Z,2.08
2023-05-23T08:15:02.694Z,2.58
2023-05-23T08:17:31.401Z,2.30
2023-05-23T08:20:01.494Z,2.25
2023-05-23T08:22:31.786Z,2.67
2023-05-23T08:25:00.539Z,2.45
2023-05-23T08:27:30.447Z,2.65
2023-05-23T08:30:00.062Z,2.40
2023-05-23T08:32:28.937Z,2.17
2023-05-23T08:34:57.613Z,2.60
2023-05-23T08:37:26.524Z,2.40
2023-05-23T08:39:56.721Z,2.28
2023-05-23T08:42:25.621Z,2.25
2023-05-23T08:44:55.023Z,2.50
2023-05-23T08:47:24.166Z,2.17
2023-05-23T08:49:56.631Z,2.42
2023-05-23T08:52:26.884Z,2.00
2023-05-23T08:54:57.107Z,3.15
2023-05-23T08:57:27.068Z,2.40
2023-05-23T08:59:57.161Z,2.38
2023-05-23T09:02:26.904Z,2.47
2023-05-23T09:04:56.073Z,2.53
2023-05-23T09:07:24.874Z,2.22
2023-05-23T09:09:53.660Z,2.30
2023-05-23T09:12:23.827Z,2.53
2023-05-23T09:14:52.985Z,2.33
2023-05-23T09:17:22.712Z,2.08
2023-05-23T09:19:51.960Z,2.17
2023-05-23T09:22:27.255Z,2.30
2023-05-23T09:24:56.910Z,2.45
2023-05-23T09:27:27.230Z,2.38
2023-05-23T09:29:55.849Z,2.30
2023-05-23T09:32:24.565Z,2.25
2023-05-23T09:34:58.418Z,2.30
2023-05-23T09:37:34.343Z,2.47
2023-05-23T09:40:07.820Z,2.20
2023-05-23T09:42:43.219Z,2.42
2023-05-23T09:45:13.024Z,13.25
2023-05-23T09:47:41.793Z,2.45
2023-05-23T09:50:14.898Z,2.30
2023-05-23T09:52:43.405Z,2.30
2023-05-23T09:55:12.854Z,2.17
2023-05-23T09:57:44.286Z,2.40
2023-05-23T10:00:14.415Z,2.55
2023-05-23T10:03:08.375Z,2.67
2023-05-23T10:05:40.139Z,2.20
2023-05-23T10:08:12.404Z,2.20
2023-05-23T10:11:30.162Z,3.15
2023-05-23T10:14:02.482Z,2.05
2023-05-23T10:16:40.522Z,2.30
2023-05-23T10:19:14.838Z,2.42
2023-05-23T10:21:50.598Z,2.40
2023-05-23T10:24:20.419Z,2.40
2023-05-23T10:26:50.392Z,2.50
2023-05-23T10:29:20.659Z,2.20
2023-05-23T10:31:49.913Z,2.40
2023-05-23T10:34:27.048Z,2.50
2023-05-23T10:37:02.115Z,2.47
2023-05-23T10:39:44.712Z,2.30
2023-05-23T10:42:19.174Z,7.30
2023-05-23T10:44:49.243Z,17.80
2023-05-23T10:47:28.338Z,2.60
2023-05-23T10:49:57.523Z,2.42
2023-05-23T10:52:27.935Z,2.53
2023-05-23T10:54:57.555Z,2.33
2023-05-23T10:57:29.097Z,2.63
2023-05-23T10:59:59.151Z,2.53
2023-05-23T11:02:29.697Z,2.80
2023-05-23T11:05:24.023Z,2.53
2023-05-23T11:08:12.242Z,2.30
2023-05-23T11:10:55.703Z,2.70
2023-05-23T11:13:25.265Z,19.83
2023-05-23T11:15:55.450Z,3.05
2023-05-23T11:18:26.186Z,24.67
2023-05-23T11:21:23.892Z,3.03
2023-05-23T11:23:57.080Z,3.63
2023-05-23T11:26:32.509Z,2.40
2023-05-23T11:29:03.493Z,2.65
2023-05-23T11:31:40.735Z,2.50
2023-05-23T11:34:09.474Z,10.70
2023-05-23T11:36:38.886Z,14.18
2023-05-23T11:39:13.572Z,3.30
2023-05-23T11:41:44.734Z,2.80
2023-05-23T11:44:14.184Z,2.47
2023-05-23T11:47:02.161Z,2.42
2023-05-23T11:49:32.887Z,2.85
2023-05-23T11:52:03.187Z,2.55
2023-05-23T11:54:32.325Z,2.50
2023-05-23T11:57:01.048Z,2.42
2023-05-23T11:59:30.112Z,2.60
2023-05-23T12:02:00.159Z,2.63
2023-05-23T12:04:29.460Z,2.75
2023-05-23T12:06:58.217Z,13.63
2023-05-23T12:09:27.059Z,2.97
2023-05-23T12:11:55.846Z,2.70
2023-05-23T12:14:51.588Z,2.70
2023-05-23T12:17:22.704Z,2.67
2023-05-23T12:19:53.117Z,2.35
2023-05-23T12:22:25.928Z,2.78
2023-05-23T12:24:56.216Z,2.67
2023-05-23T12:27:31.792Z,2.42
2023-05-23T12:30:10.826Z,2.90
2023-05-23T12:32:42.272Z,2.78
2023-05-23T12:35:13.430Z,2.83
2023-05-23T12:37:43.183Z,2.65
2023-05-23T12:40:14.735Z,2.78
2023-05-23T12:42:55.871Z,2.90
2023-05-23T12:48:37.520Z,3.00
2023-05-23T12:51:06.892Z,2.72
2023-05-23T12:53:36.778Z,2.78
2023-05-23T12:56:05.665Z,3.47
2023-05-23T12:58:34.656Z,2.72
2023-05-23T13:01:04.457Z,2.95
2023-05-23T13:03:37.659Z,2.75
2023-05-23T13:06:07.507Z,3.38
2023-05-23T13:08:36.249Z,39.42
2023-05-23T13:11:05.730Z,7.97
2023-05-23T13:13:34.394Z,4.43
2023-05-23T13:16:03.483Z,3.92
2023-05-23T13:18:32.421Z,3.63
2023-05-23T13:21:02.623Z,3.55
2023-05-23T13:23:31.201Z,2.92
2023-05-23T13:26:00.163Z,2.90
2023-05-23T13:28:28.957Z,3.42
2023-05-23T13:30:57.664Z,12.15
2023-05-23T13:33:26.415Z,3.47
2023-05-23T13:35:55.121Z,3.47
2023-05-23T13:38:27.911Z,3.50
2023-05-23T13:40:56.769Z,10.30
2023-05-23T13:43:26.012Z,3.53
2023-05-23T13:45:57.614Z,3.30
2023-05-23T13:48:26.730Z,3.38
2023-05-23T13:50:56.706Z,3.40
2023-05-23T13:53:28.011Z,3.78
2023-05-23T13:55:56.924Z,3.03
2023-05-23T13:58:25.769Z,3.25
2023-05-23T14:00:54.761Z,2.90
2023-05-23T14:03:24.868Z,3.20
2023-05-23T14:05:53.864Z,2.95
2023-05-23T14:08:22.816Z,3.20
2023-05-23T14:10:53.479Z,3.05
2023-05-23T14:13:23.418Z,3.30
2023-05-23T14:15:53.651Z,3.00
2023-05-23T14:18:22.604Z,3.03
2023-05-23T14:20:51.426Z,6.68
2023-05-23T14:23:20.103Z,3.40
2023-05-23T14:25:48.978Z,3.08
2023-05-23T14:28:19.304Z,3.28
2023-05-23T14:30:48.248Z,3.00
2023-05-23T14:33:17.204Z,3.28
2023-05-23T14:35:46.180Z,3.00
2023-05-23T14:38:15.309Z,3.15
2023-05-23T14:40:44.619Z,3.20
2023-05-23T14:43:13.818Z,3.15
2023-05-23T14:45:44.340Z,2.97
2023-05-23T14:48:13.368Z,3.30
2023-05-23T14:50:42.853Z,4.45
2023-05-23T14:53:11.558Z,3.38
2023-05-23T14:55:40.556Z,3.33
2023-05-23T14:58:09.514Z,3.40
2023-05-23T15:00:38.714Z,3.78
2023-05-23T15:03:09.067Z,3.85
2023-05-23T15:05:37.868Z,3.83
2023-05-23T15:08:06.794Z,3.55
2023-05-23T15:10:35.734Z,3.85
2023-05-23T15:13:04.779Z,4.05
2023-05-23T15:15:37.702Z,5.00
2023-05-23T15:18:10.486Z,5.07
2023-05-23T15:20:39.462Z,4.30
2023-05-23T15:23:08.355Z,34.85
2023-05-23T15:25:48.037Z,8.32
2023-05-23T15:28:18.504Z,5.38
2023-05-23T15:30:47.467Z,5.07
2023-05-23T15:33:17.728Z,5.72
2023-05-23T15:35:46.669Z,16.00
2023-05-23T15:38:17.105Z,9.30
2023-05-23T15:40:53.027Z,5.55
2023-05-23T15:43:22.274Z,4.88
2023-05-23T15:45:52.795Z,4.28
2023-05-23T15:48:23.311Z,5.18
2023-05-23T15:50:52.390Z,3.78
2023-05-23T15:53:22.885Z,4.00
2023-05-23T15:55:51.838Z,4.07
2023-05-23T15:58:20.660Z,3.97
2023-05-23T16:00:49.337Z,3.88
2023-05-23T16:03:18.099Z,4.05
2023-05-23T16:05:48.505Z,3.83
2023-05-23T16:08:17.164Z,9.43
2023-05-23T16:10:45.835Z,4.28
2023-05-23T16:15:43.431Z,3.40
2023-05-23T16:18:12.238Z,3.97
2023-05-23T16:20:40.948Z,4.25
2023-05-23T16:23:10.954Z,4.07
2023-05-23T16:25:40.154Z,3.92
2023-05-23T16:28:09.031Z,3.40
2023-05-23T16:30:37.659Z,3.55
2023-05-23T16:33:06.927Z,4.07
2023-05-23T16:35:35.816Z,3.60
2023-05-23T16:38:04.440Z,4.13
2023-05-23T16:40:34.496Z,3.85
2023-05-23T16:43:04.374Z,3.92
2023-05-23T16:45:33.271Z,3.78
2023-05-23T16:48:02.251Z,3.55
2023-05-23T16:50:30.973Z,3.88
2023-05-23T16:52:59.592Z,3.63
2023-05-23T16:55:28.152Z,3.83
2023-05-23T16:57:58.460Z,3.70
2023-05-23T17:00:28.757Z,3.95
2023-05-23T17:02:57.416Z,3.70
2023-05-23T17:05:26.999Z,3.80
2023-05-23T17:07:55.796Z,3.75
2023-05-23T17:10:24.458Z,3.60
2023-05-23T17:12:53.027Z,3.70
2023-05-23T17:15:23.091Z,4.15
2023-05-23T17:17:53.847Z,3.70
2023-05-23T17:20:25.482Z,3.42
2023-05-23T17:22:54.201Z,3.83
2023-05-23T17:25:22.960Z,4.05
2023-05-23T17:27:51.729Z,3.67
2023-05-23T17:30:21.067Z,4.03
2023-05-23T17:32:51.620Z,4.07
2023-05-23T17:35:20.609Z,3.83
2023-05-23T17:37:49.276Z,3.88
2023-05-23T17:40:18.066Z,3.92
2023-05-23T17:42:47.186Z,3.78
2023-05-23T17:45:16.200Z,4.20
2023-05-23T17:47:46.297Z,3.85
2023-05-23T17:50:16.916Z,4.32
2023-05-23T17:52:46.127Z,3.75
2023-05-23T17:55:14.815Z,3.90
2023-05-23T17:57:43.600Z,4.15
2023-05-23T18:00:13.489Z,4.05
2023-05-23T18:02:42.175Z,4.53
2023-05-23T18:05:11.536Z,4.30
2023-05-23T18:07:42.951Z,3.72
2023-05-23T18:10:13.069Z,4.05
2023-05-23T18:12:42.176Z,4.65
2023-05-23T18:15:11.533Z,4.80
2023-05-23T18:17:40.337Z,4.50
2023-05-23T18:20:10.216Z,4.32
2023-05-23T18:22:38.887Z,4.85
2023-05-23T18:25:10.125Z,5.15
2023-05-23T18:27:38.747Z,4.70
2023-05-23T18:30:08.774Z,4.82
2023-05-23T18:32:37.437Z,5.38
2023-05-23T18:35:06.951Z,5.05
2023-05-23T18:37:35.785Z,5.00
2023-05-23T18:40:04.528Z,4.55
2023-05-23T18:42:34.512Z,4.70
2023-05-23T18:45:03.186Z,4.40
2023-05-23T18:47:31.945Z,4.90
2023-05-23T18:50:01.215Z,4.80
2023-05-23T18:52:30.949Z,5.00
2023-05-23T18:54:59.562Z,4.60
2023-05-23T18:57:28.923Z,4.60
2023-05-23T18:59:59.201Z,4.57
2023-05-23T19:02:28.239Z,5.45
2023-05-23T19:04:56.865Z,4.97
2023-05-23T19:07:25.656Z,4.63
2023-05-23T19:09:54.341Z,4.65
2023-05-23T19:12:22.985Z,4.70
2023-05-23T19:14:51.609Z,4.93
2023-05-23T19:17:21.624Z,5.70
2023-05-23T19:19:50.440Z,5.05
2023-05-23T19:22:19.020Z,5.43
2023-05-23T19:24:49.514Z,5.20
2023-05-23T19:27:18.219Z,5.22
2023-05-23T19:29:46.859Z,5.05
2023-05-23T19:32:15.760Z,5.00
2023-05-23T19:34:46.759Z,5.30
2023-05-23T19:37:15.836Z,5.20
2023-05-23T19:39:47.035Z,5.57
2023-05-23T19:42:15.649Z,5.22
2023-05-23T19:44:45.121Z,5.25
2023-05-23T19:47:13.732Z,5.10
2023-05-23T19:49:42.302Z,5.50
2023-05-23T19:52:12.358Z,5.55
2023-05-23T19:54:41.233Z,5.15
2023-05-23T19:57:09.874Z,5.40
2023-05-23T19:59:38.543Z,5.78
2023-05-23T20:02:07.237Z,6.00
2023-05-23T20:04:35.917Z,5.40
2023-05-23T20:07:04.823Z,6.03
2023-05-23T20:09:34.929Z,5.85
2023-05-23T20:12:03.641Z,5.60
2023-05-23T20:14:32.811Z,6.15
2023-05-23T20:17:01.513Z,5.70
2023-05-23T20:19:30.254Z,6.43
2023-05-23T20:21:59.006Z,6.10
2023-05-23T20:24:30.578Z,6.00
2023-05-23T20:27:01.014Z,5.95
2023-05-23T20:29:29.877Z,6.72
2023-05-23T20:31:58.955Z,6.60
2023-05-23T20:34:27.566Z,6.03
2023-05-23T20:36:56.197Z,6.18
2023-05-23T20:39:25.407Z,6.22
2023-05-23T20:41:54.967Z,6.22
2023-05-23T20:44:25.092Z,6.07
2023-05-23T20:46:54.391Z,6.53
2023-05-23T20:49:23.616Z,6.53
2023-05-23T20:51:52.299Z,6.45
2023-05-23T20:54:21.439Z,6.45
2023-05-23T20:56:52.824Z,6.28
2023-05-23T20:59:21.513Z,6.80
2023-05-23T21:01:51.865Z,6.07
2023-05-23T21:04:20.595Z,6.03
2023-05-23T21:06:49.440Z,6.13
2023-05-23T21:09:18.350Z,6.30
2023-05-23T21:11:47.343Z,6.45
2023-05-23T21:14:15.998Z,6.65
2023-05-23T21:16:44.907Z,6.38
2023-05-23T21:19:15.451Z,6.70
2023-05-23T21:21:44.492Z,6.68
2023-05-23T21:24:14.495Z,7.00
2023-05-23T21:26:43.804Z,6.45
2023-05-23T21:29:12.591Z,7.18
2023-05-23T21:31:42.124Z,6.50
2023-05-23T21:34:23.262Z,6.57
2023-05-23T21:36:54.903Z,6.80
2023-05-23T21:39:23.551Z,6.55
2023-05-23T21:41:52.557Z,6.60
2023-05-23T21:44:21.469Z,7.15
2023-05-23T21:46:50.289Z,6.60
2023-05-23T21:49:19.187Z,6.80
2023-05-23T21:51:47.902Z,6.57
2023-05-23T21:54:18.058Z,6.93
2023-05-23T21:56:46.869Z,7.38
2023-05-23T21:59:15.653Z,6.63
2023-05-23T22:01:44.298Z,6.75
2023-05-23T22:04:12.908Z,6.68
2023-05-23T22:06:41.359Z,6.60
2023-05-23T22:09:12.637Z,6.50
2023-05-23T22:11:42.810Z,6.40
2023-05-23T22:14:11.896Z,6.50
2023-05-23T22:16:45.989Z,6.80
2023-05-23T22:19:18.197Z,6.60
2023-05-23T22:21:49.582Z,6.72
2023-05-23T22:24:18.178Z,6.68
2023-05-23T22:26:48.118Z,6.50
2023-05-23T22:29:16.696Z,6.45
2023-05-23T22:31:46.940Z,6.75
2023-05-23T22:34:16.257Z,6.07
2023-05-23T22:36:44.984Z,6.72
2023-05-23T22:39:13.884Z,6.50
2023-05-23T22:41:42.521Z,6.43
2023-05-23T22:44:23.679Z,7.03
2023-05-23T22:47:17.770Z,6.57
2023-05-23T22:49:46.562Z,6.25
2023-05-23T22:52:18.341Z,6.50
2023-05-23T22:54:46.970Z,6.43
2023-05-23T22:57:15.396Z,5.82
2023-05-23T22:59:45.308Z,6.05
2023-05-23T23:02:13.802Z,5.95
2023-05-23T23:04:44.415Z,6.22
2023-05-23T23:07:12.934Z,6.65
2023-05-23T23:09:41.387Z,6.10
2023-05-23T23:12:09.871Z,6.43
2023-05-23T23:14:38.353Z,5.95
2023-05-23T23:17:08.317Z,6.03
2023-05-23T23:19:36.773Z,6.35
2023-05-23T23:22:05.598Z,5.85
2023-05-23T23:24:34.129Z,5.88
2023-05-23T23:27:02.626Z,6.00
2023-05-23T23:29:31.500Z,6.07
2023-05-23T23:32:00.126Z,5.68
2023-05-23T23:34:30.265Z,5.72
2023-05-23T23:36:58.968Z,6.47
2023-05-23T23:39:27.548Z,6.15
2023-05-23T23:41:56.160Z,6.22
2023-05-23T23:44:24.742Z,6.60
2023-05-23T23:46:53.401Z,6.10
2023-05-23T23:49:22.162Z,5.70
2023-05-23T23:51:52.963Z,6.30
2023-05-23T23:54:21.609Z,5.88
2023-05-23T23:56:50.275Z,5.55
2023-05-23T23:59:18.911Z,5.70
